Pas de vigilance météorologique particulière.    Il n'y a aucun avertissement


Plus d'informations


vous aimez ? un don permettra le maintien du site

InfometeoRéférentiel météo en Belgique

Notre ancien site Autre version du site

Autre présentation du siteun concentré d'infos sur une page

orages previsions orages



Marées
 

Rapports METAR à proximité

   
LFQQ - Lille/Lesquin, France
Distance: SE 22 km
Mise à jour: 20-04-2018 16:00
Clair  
Clair  
   Vent: varie 4 km/h
Vent: varie 4 km/h
Température: 27°C
Index de chaleur: 27°C
Point de rosée: 13°C
Humidité: 42%
Baromètre: 1022 hPa
visibilité: More then 10 km
Détails des nuages: Clair m
LFQQ 201400Z AUTO VRB02KT CAVOK 27/13 Q1022 NOSIG
EBFN - Koksijde (bel-Af, Belgium
Distance: NNO 42 km
Mise à jour: 20-04-2018 15:55
Clair  
Clair  
   Vent: NO 11 km/h
Vent: NO 11 km/h
Température: 21°C
Point de rosée: 11°C
Humidité: 53%
Baromètre: 1023 hPa
Nuageux: Clear
visibilité: More then 10 km
Détails des nuages: Clair m
EBFN 201355Z AUTO 32006KT 9999 NCD 21/11 Q1023 BLU
EBOS - Oostende Airport, Belgium
Distance: N 53 km
Mise à jour: 20-04-2018 15:50
Peu de nuages  
Peu de nuages  
   Vent: ONO 11 km/h
Vent: ONO 11 km/h
Température: 18°C
Point de rosée: 10°C
Humidité: 60%
Baromètre: 1023 hPa
Nuageux: Few Clouds
visibilité: More then 10 km
Détails des nuages: Peu de nuages 1066.8 m
EBOS 201350Z 29006KT 9999 FEW035 18/10 Q1023 NOSIG
EBKT - Kortrijk, Belgium
Distance: ESE 66 km
Mise à jour: 01-01-1970 01:00
PAS actuel
  
  
   Vent: calme
Vent: calme
LFAQ - Bray, France
Distance: S 86 km
Mise à jour: 20-04-2018 16:00
Clair  
Clair  
   Vent: ONO 11 km/h
Vent: ONO 11 km/h
Température: 26°C
Point de rosée: 14°C
Humidité: 48%
Baromètre: 1023 hPa
visibilité: More then 10 km
Détails des nuages: Clair m
LFAQ 201400Z AUTO 30006KT 260V350 CAVOK 26/14 Q1023 NOSIG
EHFS - Vlissingen, Netherlands
Distance: NNE 93 km
Mise à jour: 20-04-2018 15:55
Clair  
Clair  
   Vent: Ouest 19 km/h
Vent: Ouest 19 km/h
Température: 15°C
Point de rosée: 11°C
Humidité: 77%
Baromètre: 1022 hPa
Nuageux: Clear
visibilité: 9 km
Détails des nuages: Clair m
EHFS 201355Z AUTO 27010KT 9000 NCD 15/11 Q1022 W///H///
LFAT - Le Touquet/P. Pl, France
Distance: OSO 94 km
Mise à jour: 20-04-2018 16:00
Clair  
Clair  
   Vent: Ouest 9 km/h
Vent: Ouest 9 km/h
Température: 20°C
Point de rosée: 10°C
Humidité: 53%
Baromètre: 1024 hPa
visibilité: More then 10 km
Détails des nuages: Clair m
LFAT 201400Z AUTO 27005KT 240V300 CAVOK 20/10 Q1024 NOSIG
  

Script développé par  Saratoga-weather.org Adapté pour le modèle par  Weerstation Leuven

Vous trouverez notre info météo Également à:

UK Metoffice

European Weather Network

WeatherCloud

Weather Underground

AWEKAS

Citizen Weather Observer Program (CWOP)

HAMweather, WeatherForYou, PWS Weather

Équipement que nous utilisons:

Station de Météo
Oregon WMR 200

Programme Météo
cumulus

Ordinateur Météo
Zotac ID41

Provider
Hébergé par

Oregon WMR 200

cumulus

Zotac ID41

Hébergé par